Time;durP1;ratioP1;P1;durP2;ratioP2;P2;SDS_P1;SDS_P2;PMS_P1;PMS_P2;Temp;Humidity;BMP_temperature;BMP_pressure;BME280_temperature;BME280_humidity;BME280_pressure;Samples;Min_cycle;Max_cycle;Signal;HPM_P1;HPM_P2
2022/06/04 00:00:31;;;;;;;11.48;7.13;;;13.20;99.90;;;;;;5046953;28;20053;-65
2022/06/04 00:02:57;;;;;;;9.25;6.95;;;13.20;99.90;;;;;;5065051;28;20096;-65
2022/06/04 00:05:29;;;;;;;11.85;6.85;;;13.20;99.90;;;;;;5063634;28;20041;-65
2022/06/04 00:07:59;;;;;;;11.85;7.10;;;13.20;99.90;;;;;;5063882;28;20045;-65
2022/06/04 00:15:59;;;;;;;11.65;7.18;;;13.20;99.90;;;;;;5064127;28;20064;-65
2022/06/04 00:18:25;;;;;;;11.98;7.70;;;13.10;99.90;;;;;;5064031;28;20040;-65
2022/06/04 00:20:52;;;;;;;12.32;7.55;;;13.20;99.90;;;;;;5063823;28;20056;-65
2022/06/04 00:23:19;;;;;;;12.48;7.20;;;13.00;99.90;;;;;;5063758;28;20060;-65
2022/06/04 00:25:49;;;;;;;10.02;8.15;;;13.10;99.90;;;;;;5064396;28;20049;-65
2022/06/04 00:28:16;;;;;;;12.20;8.50;;;13.00;99.90;;;;;;5045758;28;20053;-65
2022/06/04 00:30:42;;;;;;;13.65;8.35;;;13.00;99.90;;;;;;5046436;28;20120;-65
2022/06/04 00:33:08;;;;;;;15.25;8.23;;;13.00;99.90;;;;;;5062915;28;20082;-65
2022/06/04 00:35:34;;;;;;;11.95;8.27;;;12.90;99.90;;;;;;5038839;28;20041;-65
2022/06/04 00:38:02;;;;;;;12.15;7.97;;;12.70;99.90;;;;;;5046627;28;20104;-65
2022/06/04 00:40:46;;;;;;;10.60;7.95;;;12.80;99.90;;;;;;5045706;28;20080;-65
2022/06/04 00:43:12;;;;;;;12.05;7.70;;;12.90;99.90;;;;;;5063772;28;20126;-65
2022/06/04 00:45:56;;;;;;;11.70;7.97;;;12.80;99.90;;;;;;5063118;28;20040;-65
2022/06/04 00:48:23;;;;;;;7.97;6.70;;;12.80;99.90;;;;;;5058074;28;20532;-65
2022/06/04 00:50:49;;;;;;;13.43;8.38;;;12.80;99.90;;;;;;5042643;28;20101;-65
2022/06/04 00:53:15;;;;;;;10.45;7.65;;;12.80;99.90;;;;;;5045110;28;20053;-65
2022/06/04 00:56:09;;;;;;;13.32;7.88;;;12.80;99.90;;;;;;5045363;28;20382;-65
2022/06/04 00:59:03;;;;;;;11.70;7.55;;;12.70;99.90;;;;;;5045732;28;20408;-65
2022/06/04 01:01:38;;;;;;;11.15;6.72;;;12.70;99.90;;;;;;5045608;28;20109;-65
2022/06/04 01:07:29;;;;;;;17.30;8.00;;;12.70;99.90;;;;;;5044942;28;20052;-65
2022/06/04 01:10:04;;;;;;;11.88;7.55;;;12.80;99.90;;;;;;5044184;28;20102;-65
2022/06/04 01:12:33;;;;;;;16.38;7.85;;;12.70;99.90;;;;;;5046135;28;20082;-65
2022/06/04 01:15:32;;;;;;;16.80;7.28;;;12.90;99.90;;;;;;5046670;28;20076;-65
2022/06/04 01:18:20;;;;;;;14.20;7.57;;;12.70;99.90;;;;;;5005270;28;20088;-65
2022/06/04 01:21:18;;;;;;;14.88;8.05;;;12.70;99.90;;;;;;5038534;28;20046;-65
2022/06/04 01:24:06;;;;;;;17.42;8.07;;;12.60;99.90;;;;;;5009463;28;20050;-65
2022/06/04 01:26:34;;;;;;;12.65;7.95;;;12.70;99.90;;;;;;5025577;28;20058;-65
2022/06/04 01:29:09;;;;;;;13.85;7.70;;;12.80;99.90;;;;;;5025267;28;20134;-65
2022/06/04 01:31:43;;;;;;;11.73;8.32;;;12.60;99.90;;;;;;5026059;28;20045;-65
2022/06/04 01:34:12;;;;;;;16.08;8.60;;;12.60;99.90;;;;;;5009526;28;20547;-65
2022/06/04 01:36:44;;;;;;;12.88;7.72;;;12.50;99.90;;;;;;5008722;28;20114;-65
2022/06/04 01:39:17;;;;;;;11.23;6.85;;;12.60;99.90;;;;;;5025425;28;20056;-66
2022/06/04 01:41:52;;;;;;;13.18;7.32;;;12.70;99.90;;;;;;5009456;28;20133;-66
2022/06/04 01:44:23;;;;;;;11.77;6.97;;;12.60;99.90;;;;;;5008989;28;20053;-66
2022/06/04 01:46:57;;;;;;;11.63;7.10;;;12.60;99.90;;;;;;5024906;28;20449;-66
2022/06/04 01:49:49;;;;;;;12.88;7.45;;;12.60;99.90;;;;;;5024869;28;20057;-66
2022/06/04 01:52:19;;;;;;;13.70;7.07;;;12.50;99.90;;;;;;5033519;28;20046;-66
2022/06/04 01:54:52;;;;;;;11.90;7.30;;;12.50;99.90;;;;;;5023080;28;20055;-66
2022/06/04 01:57:44;;;;;;;13.63;7.80;;;12.50;99.90;;;;;;5048272;28;20113;-66
2022/06/04 02:00:16;;;;;;;10.80;7.05;;;12.40;99.90;;;;;;5043635;28;20048;-66
2022/06/04 02:03:01;;;;;;;11.77;8.05;;;12.40;99.90;;;;;;5049295;28;20091;-66
2022/06/04 02:05:33;;;;;;;13.32;6.88;;;12.40;99.90;;;;;;5049023;28;20355;-66
2022/06/04 02:08:01;;;;;;;11.95;8.15;;;12.30;99.90;;;;;;5074359;28;20095;-65
2022/06/04 02:10:59;;;;;;;16.00;7.80;;;12.30;99.90;;;;;;5067157;28;20569;-66
2022/06/04 02:13:25;;;;;;;10.98;7.18;;;12.20;99.90;;;;;;5040032;28;20136;-66
2022/06/04 02:16:03;;;;;;;15.48;7.38;;;12.30;99.90;;;;;;5049194;28;20118;-66
2022/06/04 02:18:29;;;;;;;13.88;7.47;;;12.30;99.90;;;;;;5048582;28;20053;-66
2022/06/04 02:20:55;;;;;;;17.08;7.88;;;12.30;99.90;;;;;;5048912;28;20129;-65
2022/06/04 02:23:21;;;;;;;13.02;7.25;;;12.30;99.90;;;;;;5049485;28;20041;-66
2022/06/04 02:25:47;;;;;;;13.35;7.55;;;12.20;99.90;;;;;;5048990;28;20068;-66
2022/06/04 02:28:13;;;;;;;12.35;6.85;;;12.20;99.90;;;;;;5034992;28;20450;-66
2022/06/04 02:31:11;;;;;;;12.52;7.82;;;12.30;99.90;;;;;;5064891;28;20085;-66
2022/06/04 02:34:00;;;;;;;12.40;7.45;;;12.20;99.90;;;;;;5030432;28;20064;-66
2022/06/04 02:36:56;;;;;;;13.13;7.63;;;12.10;99.90;;;;;;5048658;28;20048;-65
2022/06/04 02:39:49;;;;;;;11.90;7.60;;;12.20;99.90;;;;;;5040272;28;20052;-66
2022/06/04 02:42:37;;;;;;;13.32;8.02;;;12.10;99.90;;;;;;5048484;28;20051;-66
2022/06/04 02:45:03;;;;;;;13.40;7.88;;;12.10;99.90;;;;;;5048334;28;20072;-66
2022/06/04 02:47:39;;;;;;;14.98;7.97;;;12.10;99.90;;;;;;5048360;28;20053;-66
2022/06/04 02:50:13;;;;;;;16.50;8.13;;;11.90;99.90;;;;;;5037090;28;20050;-66
2022/06/04 02:52:40;;;;;;;12.77;8.43;;;12.00;99.90;;;;;;5061183;28;20129;-66
2022/06/04 02:55:10;;;;;;;16.52;7.82;;;12.00;99.90;;;;;;5035459;28;20040;-66
2022/06/04 02:57:41;;;;;;;14.57;8.77;;;12.00;99.90;;;;;;5065809;28;20060;-66
2022/06/04 03:00:09;;;;;;;13.75;8.13;;;11.90;99.90;;;;;;5048118;28;20123;-66
2022/06/04 03:02:36;;;;;;;13.40;8.93;;;11.90;99.90;;;;;;5048631;28;20131;-66
2022/06/04 03:05:14;;;;;;;11.82;8.25;;;11.90;99.90;;;;;;5048633;28;20072;-66
2022/06/04 03:07:43;;;;;;;12.45;8.38;;;11.90;99.90;;;;;;5044972;28;20121;-66
2022/06/04 03:10:22;;;;;;;15.98;8.70;;;11.80;99.90;;;;;;5047091;28;20049;-66
2022/06/04 03:12:48;;;;;;;14.35;7.88;;;11.80;99.90;;;;;;5065527;28;20041;-66
2022/06/04 03:15:15;;;;;;;15.98;8.75;;;11.80;99.90;;;;;;5057761;28;20087;-66
2022/06/04 03:17:44;;;;;;;13.93;8.70;;;11.80;99.90;;;;;;5047877;28;20513;-66
2022/06/04 03:20:11;;;;;;;13.43;8.07;;;11.80;99.90;;;;;;5048205;28;20063;-66
2022/06/04 03:22:38;;;;;;;12.55;8.23;;;11.80;99.90;;;;;;5048163;28;20048;-66
2022/06/04 03:25:04;;;;;;;12.52;7.00;;;11.80;99.90;;;;;;5045597;28;20059;-66
2022/06/04 03:27:30;;;;;;;13.52;8.30;;;11.70;99.90;;;;;;5064406;28;20560;-66
2022/06/04 03:29:56;;;;;;;13.30;8.25;;;11.80;99.90;;;;;;5047377;28;20056;-66
2022/06/04 03:32:23;;;;;;;12.65;7.10;;;11.80;99.90;;;;;;5047709;28;20044;-66
2022/06/04 03:34:49;;;;;;;14.02;8.00;;;11.80;99.90;;;;;;5047814;28;20574;-66
2022/06/04 03:37:15;;;;;;;13.27;7.20;;;11.90;99.90;;;;;;5047453;28;20048;-66
2022/06/04 03:39:41;;;;;;;13.13;6.78;;;11.90;99.90;;;;;;5046738;28;20082;-66
2022/06/04 03:42:07;;;;;;;10.48;6.50;;;11.80;99.90;;;;;;5031200;28;20124;-66
2022/06/04 03:44:33;;;;;;;14.25;7.80;;;11.90;99.90;;;;;;5047917;28;20045;-66
2022/06/04 03:46:59;;;;;;;11.40;6.57;;;11.80;99.90;;;;;;5052264;28;20037;-66
2022/06/04 03:49:25;;;;;;;13.93;7.60;;;11.90;99.90;;;;;;5047128;28;20067;-66
2022/06/04 03:51:51;;;;;;;12.88;6.65;;;11.70;99.90;;;;;;5046955;28;20063;-66
2022/06/04 03:54:16;;;;;;;11.90;7.00;;;11.80;99.90;;;;;;5071311;28;20140;-66
2022/06/04 03:56:42;;;;;;;11.05;6.53;;;11.90;99.90;;;;;;5064842;28;20048;-66
2022/06/04 03:59:08;;;;;;;12.18;6.00;;;11.80;99.90;;;;;;5047540;28;20049;-66
2022/06/04 04:01:33;;;;;;;11.88;6.40;;;11.90;99.90;;;;;;5034094;28;20059;-66
2022/06/04 04:04:00;;;;;;;10.95;6.18;;;11.90;99.90;;;;;;5046998;28;20036;-66
2022/06/04 04:06:30;;;;;;;10.00;6.15;;;11.90;99.90;;;;;;5046673;28;20049;-66
2022/06/04 04:08:57;;;;;;;11.15;5.68;;;12.00;99.90;;;;;;5050714;28;20049;-66
2022/06/04 04:11:26;;;;;;;9.30;6.05;;;11.90;99.90;;;;;;5079239;28;20045;-65
2022/06/04 04:13:53;;;;;;;9.70;5.88;;;11.90;99.90;;;;;;5031004;28;20489;-66
2022/06/04 04:16:20;;;;;;;10.07;5.90;;;12.00;99.90;;;;;;5047456;28;20531;-66
2022/06/04 04:18:46;;;;;;;9.30;5.97;;;12.00;99.90;;;;;;5047189;28;20087;-65
2022/06/04 04:21:18;;;;;;;10.00;6.63;;;12.00;99.90;;;;;;5047427;28;20041;-65
2022/06/04 04:23:44;;;;;;;14.80;6.15;;;12.00;99.90;;;;;;5030941;28;20055;-66
2022/06/04 04:26:12;;;;;;;8.45;6.30;;;12.00;99.90;;;;;;5047071;28;20619;-66
2022/06/04 04:28:39;;;;;;;9.63;5.68;;;12.00;99.90;;;;;;5046353;28;20131;-66
2022/06/04 04:31:18;;;;;;;9.93;5.85;;;12.10;99.90;;;;;;5046474;28;20037;-66
2022/06/04 04:33:43;;;;;;;9.52;5.72;;;12.10;99.90;;;;;;5046542;28;20055;-66
2022/06/04 04:36:10;;;;;;;8.10;6.68;;;12.10;99.90;;;;;;5046626;28;20075;-66
2022/06/04 04:38:36;;;;;;;7.53;5.80;;;12.30;99.90;;;;;;5046361;28;20053;-66
2022/06/04 04:41:02;;;;;;;9.00;5.63;;;12.20;99.90;;;;;;5051065;28;20115;-66
2022/06/04 04:43:28;;;;;;;9.82;5.75;;;12.10;99.90;;;;;;5064777;28;20106;-66
2022/06/04 04:46:04;;;;;;;9.88;5.55;;;12.20;99.90;;;;;;5064641;28;20033;-66
2022/06/04 04:48:30;;;;;;;10.20;5.95;;;12.20;99.90;;;;;;5058464;28;20084;-66
2022/06/04 04:50:56;;;;;;;8.07;5.28;;;12.10;99.90;;;;;;5064455;28;20048;-65
2022/06/04 04:53:21;;;;;;;7.10;5.03;;;12.20;99.90;;;;;;5045191;28;20102;-65
2022/06/04 04:55:48;;;;;;;13.20;5.40;;;12.30;99.90;;;;;;5033096;28;20104;-66
2022/06/04 04:58:14;;;;;;;9.07;5.10;;;12.40;99.90;;;;;;5068557;28;20098;-66
2022/06/04 05:00:41;;;;;;;10.35;5.60;;;12.60;99.90;;;;;;5068551;28;20037;-66
2022/06/04 05:03:07;;;;;;;7.70;5.30;;;12.30;99.90;;;;;;5041034;28;20049;-65
2022/06/04 05:05:33;;;;;;;10.77;5.60;;;12.40;99.90;;;;;;5036758;28;20052;-65
2022/06/04 05:07:58;;;;;;;9.02;5.70;;;12.40;99.90;;;;;;5050083;28;20098;-66
2022/06/04 05:10:24;;;;;;;9.63;5.20;;;12.50;99.90;;;;;;5049632;28;20044;-66
2022/06/04 05:12:55;;;;;;;9.70;5.50;;;12.50;99.90;;;;;;5049693;28;20048;-66
2022/06/04 05:15:22;;;;;;;10.18;5.50;;;12.40;99.90;;;;;;5050349;28;20056;-66
2022/06/04 05:17:48;;;;;;;10.68;5.85;;;12.60;99.90;;;;;;5050565;28;20048;-65
2022/06/04 05:20:14;;;;;;;11.85;5.93;;;12.60;99.90;;;;;;5049619;28;20064;-66
2022/06/04 05:22:41;;;;;;;10.45;6.22;;;12.60;99.90;;;;;;5067880;28;20044;-66
2022/06/04 05:25:08;;;;;;;7.97;5.93;;;12.70;99.90;;;;;;5049714;28;20048;-66
2022/06/04 05:27:34;;;;;;;9.90;6.10;;;12.80;99.90;;;;;;5049852;28;20052;-65
2022/06/04 05:30:00;;;;;;;11.05;5.80;;;12.70;99.90;;;;;;5049466;28;20047;-65
2022/06/04 05:32:26;;;;;;;7.38;5.00;;;12.70;99.90;;;;;;5049673;28;20056;-65
2022/06/04 05:34:52;;;;;;;9.95;6.22;;;12.80;99.90;;;;;;5052794;28;20125;-66
2022/06/04 05:37:18;;;;;;;8.15;5.55;;;12.90;99.90;;;;;;5049692;28;20049;-66
2022/06/04 05:39:43;;;;;;;10.32;5.75;;;12.90;99.90;;;;;;5049173;28;20087;-66
2022/06/04 05:42:09;;;;;;;9.02;5.80;;;12.90;99.90;;;;;;5066347;28;20044;-65
2022/06/04 05:44:35;;;;;;;10.15;5.93;;;12.90;99.90;;;;;;5049868;28;20078;-65
2022/06/04 05:47:01;;;;;;;11.50;5.97;;;12.90;99.90;;;;;;5050159;28;20108;-66
2022/06/04 05:49:26;;;;;;;12.57;6.22;;;12.90;99.90;;;;;;5048426;28;20087;-66
2022/06/04 05:51:52;;;;;;;7.88;5.13;;;13.10;99.90;;;;;;5067287;28;20047;-66
2022/06/04 05:54:19;;;;;;;9.57;6.75;;;13.00;99.90;;;;;;5049590;28;20049;-65
2022/06/04 05:56:48;;;;;;;9.50;5.65;;;13.10;99.90;;;;;;5049482;28;20056;-66
2022/06/04 05:59:16;;;;;;;12.18;6.15;;;13.10;99.90;;;;;;5049165;28;20110;-66
2022/06/04 06:01:43;;;;;;;9.82;6.13;;;13.10;99.90;;;;;;5048698;28;20049;-66
2022/06/04 06:04:11;;;;;;;8.25;5.80;;;13.20;99.90;;;;;;5049106;28;20044;-65
2022/06/04 06:06:43;;;;;;;9.10;5.90;;;13.30;99.90;;;;;;5067345;28;20095;-65
2022/06/04 06:09:11;;;;;;;12.93;6.30;;;13.40;99.90;;;;;;5047407;28;20053;-65
2022/06/04 06:11:38;;;;;;;9.43;6.35;;;13.50;99.90;;;;;;5065274;28;20037;-66
2022/06/04 06:14:07;;;;;;;7.13;5.32;;;13.50;99.90;;;;;;5049377;28;20516;-65
2022/06/04 06:16:34;;;;;;;9.10;6.00;;;13.50;99.90;;;;;;5049451;28;20045;-65
2022/06/04 06:19:01;;;;;;;10.00;6.07;;;13.60;99.90;;;;;;5049751;28;20442;-65
2022/06/04 06:21:29;;;;;;;9.38;5.68;;;13.60;99.90;;;;;;5049176;28;20044;-66
2022/06/04 06:23:56;;;;;;;7.50;5.25;;;13.60;99.90;;;;;;5066701;28;20056;-66
2022/06/04 06:26:28;;;;;;;8.43;5.75;;;13.60;99.90;;;;;;5066289;28;20053;-66
2022/06/04 06:28:55;;;;;;;10.27;6.30;;;13.60;99.90;;;;;;5076031;28;20052;-66
2022/06/04 06:31:26;;;;;;;9.07;6.70;;;13.50;99.90;;;;;;5048369;28;20115;-66
2022/06/04 06:33:53;;;;;;;7.30;5.68;;;13.50;99.90;;;;;;5066497;28;20073;-66
2022/06/04 06:36:19;;;;;;;11.07;6.00;;;13.50;99.90;;;;;;5066209;28;20041;-66
2022/06/04 06:38:46;;;;;;;8.05;6.03;;;13.70;99.90;;;;;;5060126;28;20062;-66
2022/06/04 06:41:13;;;;;;;7.57;5.68;;;13.70;99.90;;;;;;5058824;28;20041;-66
2022/06/04 06:43:46;;;;;;;10.27;6.13;;;13.80;99.90;;;;;;5066293;28;20048;-66
2022/06/04 06:46:19;;;;;;;8.30;5.93;;;13.90;99.90;;;;;;5053106;28;20081;-66
2022/06/04 06:48:47;;;;;;;9.60;5.97;;;13.80;99.90;;;;;;5053790;28;20051;-66
2022/06/04 06:51:23;;;;;;;10.52;7.00;;;13.90;99.90;;;;;;5047163;28;20060;-66
2022/06/04 06:53:49;;;;;;;9.43;6.20;;;14.00;99.90;;;;;;5064484;28;20052;-67
2022/06/04 06:56:17;;;;;;;10.18;6.10;;;14.00;99.90;;;;;;5064960;28;20489;-67
2022/06/04 06:58:43;;;;;;;9.00;6.13;;;13.90;99.90;;;;;;5066174;28;20048;-66
2022/06/04 07:01:09;;;;;;;9.95;6.47;;;14.10;99.90;;;;;;5064543;28;20049;-65
2022/06/04 07:03:36;;;;;;;10.15;6.63;;;14.00;99.90;;;;;;5064305;28;20040;-65
2022/06/04 07:06:03;;;;;;;8.73;5.88;;;14.10;99.90;;;;;;5047238;28;20068;-66
2022/06/04 07:08:29;;;;;;;10.00;6.95;;;14.10;99.90;;;;;;5046493;28;20053;-66
2022/06/04 07:10:55;;;;;;;9.82;6.90;;;14.20;99.90;;;;;;5046123;28;20055;-66
2022/06/04 07:13:20;;;;;;;8.18;6.55;;;14.20;99.90;;;;;;5033946;28;20049;-66
2022/06/04 07:15:46;;;;;;;11.45;6.70;;;14.30;99.90;;;;;;5037114;28;20055;-66
2022/06/04 07:18:13;;;;;;;11.82;6.97;;;14.30;99.90;;;;;;5046935;28;20087;-65
2022/06/04 07:20:40;;;;;;;8.60;6.20;;;14.40;99.90;;;;;;5064908;28;20052;-66
2022/06/04 07:23:06;;;;;;;10.18;5.70;;;14.50;99.90;;;;;;5043191;28;20107;-66
2022/06/04 07:25:32;;;;;;;8.60;6.22;;;14.50;99.90;;;;;;5038897;28;20060;-65
2022/06/04 07:27:58;;;;;;;12.48;6.15;;;14.50;99.90;;;;;;5046019;28;20136;-66
2022/06/04 07:30:24;;;;;;;9.40;6.32;;;14.70;99.90;;;;;;5063124;28;20535;-66
2022/06/04 07:32:51;;;;;;;8.30;6.13;;;14.70;99.90;;;;;;5065053;28;20110;-66
2022/06/04 07:35:18;;;;;;;11.95;6.15;;;14.80;99.90;;;;;;5041345;28;20095;-66
2022/06/04 07:37:43;;;;;;;8.88;6.25;;;14.80;99.90;;;;;;5027485;28;20049;-67
2022/06/04 07:40:10;;;;;;;9.15;6.18;;;14.90;99.90;;;;;;5027541;28;20076;-66
2022/06/04 07:42:36;;;;;;;8.80;5.93;;;15.10;99.90;;;;;;5029791;28;20405;-69
2022/06/04 07:45:03;;;;;;;7.88;6.13;;;15.10;99.90;;;;;;5034345;28;20045;-67
2022/06/04 07:47:29;;;;;;;9.82;6.50;;;15.20;99.90;;;;;;5037087;28;20051;-67
2022/06/04 07:49:56;;;;;;;9.80;6.80;;;15.40;99.90;;;;;;5044568;28;20053;-71
2022/06/04 07:52:22;;;;;;;7.85;7.00;;;15.30;99.90;;;;;;5062891;28;20102;-66
2022/06/04 07:54:47;;;;;;;8.20;6.10;;;15.30;99.90;;;;;;5034963;28;20049;-63
2022/06/04 07:57:13;;;;;;;8.35;5.70;;;15.40;99.90;;;;;;5064662;28;20100;-64
2022/06/04 07:59:39;;;;;;;8.35;5.88;;;15.50;99.90;;;;;;5063887;28;20063;-64
2022/06/04 08:02:05;;;;;;;8.13;5.95;;;15.50;99.90;;;;;;5058049;28;20053;-64
2022/06/04 08:04:31;;;;;;;10.63;7.05;;;15.60;99.90;;;;;;5045991;28;20057;-64
2022/06/04 08:06:56;;;;;;;7.57;6.10;;;15.70;99.90;;;;;;5045711;28;20045;-64
2022/06/04 08:09:22;;;;;;;7.10;5.78;;;15.80;99.90;;;;;;5046699;28;20558;-64
2022/06/04 08:11:48;;;;;;;8.98;6.28;;;15.90;99.90;;;;;;5046694;28;20083;-64
2022/06/04 08:14:17;;;;;;;8.95;5.90;;;15.90;99.90;;;;;;5065199;28;20041;-64
2022/06/04 08:16:51;;;;;;;8.52;6.45;;;16.00;99.90;;;;;;5034497;28;20422;-61
2022/06/04 08:19:17;;;;;;;11.93;7.00;;;16.00;99.90;;;;;;5051974;28;20047;-62
2022/06/04 08:21:44;;;;;;;8.45;6.53;;;16.00;99.90;;;;;;5064238;28;20049;-62
2022/06/04 08:24:11;;;;;;;8.57;5.63;;;16.00;99.90;;;;;;5063900;28;20103;-62
2022/06/04 08:26:38;;;;;;;9.35;6.13;;;16.20;99.90;;;;;;5046286;28;20068;-64
2022/06/04 08:29:04;;;;;;;7.93;6.10;;;16.30;99.90;;;;;;5046704;28;20045;-64
2022/06/04 08:31:29;;;;;;;9.52;5.88;;;16.30;99.90;;;;;;5064812;28;20063;-64
2022/06/04 08:33:56;;;;;;;9.90;6.00;;;16.20;99.90;;;;;;5049552;28;20047;-64
2022/06/04 08:36:21;;;;;;;13.27;6.85;;;16.30;99.90;;;;;;5050217;28;20045;-64
2022/06/04 08:38:47;;;;;;;9.88;6.45;;;16.20;99.90;;;;;;5050073;28;20071;-62
2022/06/04 08:41:51;;;;;;;8.77;5.80;;;16.30;99.90;;;;;;5050006;28;20059;-63
2022/06/04 08:44:30;;;;;;;7.65;5.85;;;16.20;99.90;;;;;;5050624;28;20048;-63
2022/06/04 08:47:00;;;;;;;7.82;5.43;;;16.40;99.90;;;;;;5043950;28;20057;-63
2022/06/04 08:49:31;;;;;;;7.18;5.68;;;16.50;99.90;;;;;;5061772;28;20053;-62
2022/06/04 08:52:02;;;;;;;10.52;4.90;;;16.60;99.90;;;;;;5070837;28;20079;-63
2022/06/04 08:57:32;;;;;;;9.20;5.88;;;16.70;99.90;;;;;;5068429;28;20048;-62
2022/06/04 09:00:13;;;;;;;8.40;6.05;;;16.80;99.90;;;;;;5067074;28;20044;-63
2022/06/04 09:02:48;;;;;;;10.02;5.80;;;17.00;99.90;;;;;;5032517;28;20048;-63
2022/06/04 09:05:51;;;;;;;6.10;5.10;;;17.00;99.90;;;;;;5067641;28;20315;-62
2022/06/04 09:08:24;;;;;;;7.60;5.25;;;17.00;99.90;;;;;;5067461;28;20049;-62
2022/06/04 09:10:57;;;;;;;7.18;5.43;;;17.20;99.90;;;;;;5067626;28;20449;-62
2022/06/04 09:13:31;;;;;;;9.30;5.75;;;17.10;99.90;;;;;;5067116;28;20087;-62
2022/06/04 09:16:03;;;;;;;8.48;6.60;;;17.20;99.90;;;;;;5066863;28;20397;-62
2022/06/04 09:18:34;;;;;;;8.80;6.03;;;17.20;99.90;;;;;;5066350;28;20080;-62
2022/06/04 09:21:02;;;;;;;9.10;5.80;;;17.40;99.90;;;;;;5067222;28;20405;-63
2022/06/04 09:23:43;;;;;;;8.98;6.20;;;17.40;99.90;;;;;;5066326;28;20037;-62
2022/06/04 09:26:14;;;;;;;8.63;6.28;;;17.50;99.90;;;;;;5063561;28;20057;-64
2022/06/04 09:29:31;;;;;;;7.80;5.68;;;17.50;99.90;;;;;;5049747;28;20059;-63
2022/06/04 09:32:03;;;;;;;6.65;5.90;;;17.80;99.90;;;;;;5024989;28;20046;-61
2022/06/04 09:34:37;;;;;;;6.65;5.78;;;17.80;99.90;;;;;;5038812;28;20084;-62
2022/06/04 09:37:07;;;;;;;7.90;5.70;;;17.90;99.90;;;;;;5040493;28;20050;-62
2022/06/04 09:39:38;;;;;;;9.32;6.03;;;17.90;99.90;;;;;;5040506;28;20134;-61
2022/06/04 09:42:06;;;;;;;8.25;5.93;;;18.10;99.90;;;;;;5040799;28;20046;-62
2022/06/04 09:44:36;;;;;;;7.18;5.47;;;18.20;99.90;;;;;;5040654;28;20053;-62
2022/06/04 09:47:05;;;;;;;8.20;6.50;;;18.20;99.90;;;;;;5024236;28;20050;-62
2022/06/04 09:50:00;;;;;;;8.13;6.00;;;18.20;99.90;;;;;;5023877;28;20057;-63
2022/06/04 09:52:38;;;;;;;8.43;6.28;;;18.20;99.90;;;;;;5023136;28;20092;-64
2022/06/04 09:55:18;;;;;;;9.48;6.63;;;18.20;99.90;;;;;;5040728;28;20057;-63
2022/06/04 09:58:14;;;;;;;9.80;5.05;;;18.20;99.90;;;;;;5024165;28;20053;-63
2022/06/04 10:00:41;;;;;;;8.35;5.35;;;18.10;99.90;;;;;;5011349;28;20109;-63
2022/06/04 10:03:19;;;;;;;12.13;5.82;;;18.20;99.90;;;;;;5040322;28;20608;-63
2022/06/04 10:05:51;;;;;;;5.68;4.97;;;18.10;99.90;;;;;;5056301;28;20176;-63
2022/06/04 10:08:25;;;;;;;7.55;5.60;;;18.10;99.90;;;;;;5066484;28;20182;-62
2022/06/04 10:11:04;;;;;;;9.73;5.65;;;18.20;99.90;;;;;;5078064;28;20061;-66
2022/06/04 10:13:45;;;;;;;;;;;18.30;99.90;;;;;;5048885;28;20101;-64
2022/06/04 10:16:18;;;;;;;8.35;5.00;;;18.30;99.90;;;;;;5048199;28;19928;-63
2022/06/04 10:19:14;;;;;;;8.85;5.35;;;18.30;99.90;;;;;;5066454;28;20056;-64
2022/06/04 10:21:42;;;;;;;6.90;5.22;;;18.40;99.90;;;;;;5048609;28;20045;-63
2022/06/04 10:24:26;;;;;;;6.35;5.20;;;18.40;99.90;;;;;;5048715;28;20045;-64
2022/06/04 10:26:58;;;;;;;6.10;4.55;;;18.60;99.90;;;;;;5048902;28;20056;-63
2022/06/04 10:29:56;;;;;;;9.65;5.40;;;18.60;99.90;;;;;;5047331;28;20053;-63
2022/06/04 10:32:36;;;;;;;7.97;5.60;;;18.60;99.90;;;;;;5065152;28;20408;-63
2022/06/04 10:35:27;;;;;;;7.32;5.43;;;18.80;99.90;;;;;;5047053;28;20080;-63
2022/06/04 10:38:03;;;;;;;7.68;5.47;;;18.80;99.90;;;;;;5021555;28;20045;-63
2022/06/04 10:41:03;;;;;;;6.45;5.43;;;18.80;99.90;;;;;;5047695;28;20116;-63
2022/06/04 10:43:47;;;;;;;7.45;5.10;;;18.80;99.90;;;;;;5047336;28;20509;-63
2022/06/04 10:46:28;;;;;;;6.97;4.53;;;19.00;99.90;;;;;;5047238;28;20091;-63
2022/06/04 10:49:37;;;;;;;6.22;5.25;;;19.00;99.90;;;;;;5047452;28;20107;-63
2022/06/04 10:52:28;;;;;;;8.23;5.72;;;19.20;99.90;;;;;;5032375;28;20046;-63
2022/06/04 10:55:12;;;;;;;7.35;5.22;;;19.20;99.90;;;;;;5035419;28;20049;-64
2022/06/04 10:58:02;;;;;;;8.80;6.00;;;19.40;99.90;;;;;;5046756;28;20048;-63
2022/06/04 11:00:37;;;;;;;7.05;5.47;;;19.40;99.90;;;;;;5046842;28;20507;-64
2022/06/04 11:03:45;;;;;;;7.00;4.32;;;19.70;99.90;;;;;;5046734;28;20128;-63
2022/06/04 11:06:21;;;;;;;6.03;4.53;;;19.70;99.90;;;;;;5065219;28;20083;-63
2022/06/04 11:08:56;;;;;;;6.43;4.55;;;19.70;99.90;;;;;;5065645;28;20578;-63
2022/06/04 11:11:38;;;;;;;7.38;4.53;;;19.80;99.90;;;;;;5065851;28;20053;-63
2022/06/04 11:14:10;;;;;;;8.80;4.95;;;19.80;99.90;;;;;;5047189;28;20052;-63
2022/06/04 11:16:50;;;;;;;7.20;5.00;;;20.00;99.90;;;;;;5065021;28;20072;-64
2022/06/04 11:19:21;;;;;;;6.90;4.40;;;20.00;99.90;;;;;;5050756;28;20069;-63
2022/06/04 11:21:53;;;;;;;6.07;4.63;;;19.90;99.90;;;;;;5046115;28;20079;-64
2022/06/04 11:24:27;;;;;;;5.97;4.85;;;20.00;99.90;;;;;;5064071;28;20052;-63
2022/06/04 11:27:07;;;;;;;4.53;4.13;;;20.10;99.90;;;;;;5028763;28;20061;-63
2022/06/04 11:29:36;;;;;;;9.05;4.60;;;20.00;99.90;;;;;;5057667;28;20128;-63
2022/06/04 11:32:08;;;;;;;4.97;4.47;;;20.10;99.90;;;;;;5045386;28;20045;-63
2022/06/04 11:34:58;;;;;;;5.10;4.22;;;20.10;99.90;;;;;;5046057;28;20064;-63
2022/06/04 11:38:13;;;;;;;7.18;4.55;;;20.10;99.90;;;;;;5046052;28;20052;-63
2022/06/04 11:41:02;;;;;;;11.32;5.00;;;20.10;99.90;;;;;;5045975;28;20131;-63
2022/06/04 11:43:48;;;;;;;5.20;4.03;;;20.10;99.90;;;;;;5064445;28;20049;-63
2022/06/04 11:46:49;;;;;;;4.30;3.60;;;20.00;99.90;;;;;;5065270;28;20337;-63
2022/06/04 11:49:26;;;;;;;6.03;4.03;;;20.20;99.90;;;;;;5031179;28;20128;-64
2022/06/04 11:52:08;;;;;;;5.88;4.18;;;19.90;99.90;;;;;;5064612;28;20075;-63
2022/06/04 11:54:54;;;;;;;6.07;4.03;;;19.90;99.90;;;;;;5047120;28;20360;-63
2022/06/04 11:57:47;;;;;;;5.35;4.20;;;20.00;99.90;;;;;;5045518;28;20045;-63
2022/06/04 12:00:19;;;;;;;7.18;4.63;;;20.10;99.90;;;;;;5063852;28;20523;-63
2022/06/04 12:03:14;;;;;;;7.22;4.30;;;20.40;99.90;;;;;;5045923;28;20049;-63
2022/06/04 12:05:58;;;;;;;7.15;4.53;;;20.40;99.90;;;;;;5064318;28;20052;-64
2022/06/04 12:08:34;;;;;;;7.38;4.57;;;20.80;99.90;;;;;;5063592;28;20319;-63
2022/06/04 12:11:23;;;;;;;7.18;4.28;;;20.80;99.90;;;;;;5063839;28;20457;-64
2022/06/04 12:13:48;;;;;;;5.63;3.80;;;21.00;99.90;;;;;;5061327;28;20047;-64
2022/06/04 12:16:33;;;;;;;5.47;4.10;;;21.20;99.90;;;;;;5032054;28;20124;-64
2022/06/04 12:25:10;;;;;;;8.93;8.13;;;21.70;99.90;;;;;;5056726;28;20076;-63
2022/06/04 12:27:52;;;;;;;6.00;3.45;;;22.00;99.90;;;;;;5063336;28;20083;-63
2022/06/04 12:30:30;;;;;;;4.57;3.47;;;22.20;99.90;;;;;;5063344;28;20114;-63
2022/06/04 12:32:56;;;;;;;5.00;3.38;;;22.10;99.90;;;;;;5063413;28;20048;-64
2022/06/04 12:35:23;;;;;;;6.22;3.13;;;22.20;99.90;;;;;;5055614;28;20056;-64
2022/06/04 12:37:58;;;;;;;6.00;3.53;;;22.20;99.90;;;;;;5063932;28;20041;-64
2022/06/04 12:40:24;;;;;;;4.15;3.47;;;22.10;99.90;;;;;;5045970;28;20565;-64
2022/06/04 12:43:14;;;;;;;5.78;3.80;;;22.20;99.90;;;;;;5063481;28;20069;-64
2022/06/04 12:45:46;;;;;;;4.05;3.20;;;22.30;99.90;;;;;;5063367;28;20045;-64
2022/06/04 12:48:30;;;;;;;3.63;3.13;;;22.30;99.90;;;;;;5045728;28;20049;-63
2022/06/04 12:51:05;;;;;;;7.93;3.65;;;22.50;99.90;;;;;;5064280;28;20036;-64
2022/06/04 12:53:34;;;;;;;7.40;3.38;;;22.40;99.90;;;;;;5046706;28;20508;-64
2022/06/04 12:56:05;;;;;;;4.95;3.17;;;22.40;99.90;;;;;;5045864;28;20067;-64
2022/06/04 12:58:39;;;;;;;6.25;3.38;;;22.50;99.90;;;;;;5046343;28;20056;-64
2022/06/04 13:01:20;;;;;;;6.22;3.88;;;22.80;99.90;;;;;;5033269;28;20057;-64
2022/06/04 13:04:02;;;;;;;6.78;4.03;;;22.90;99.90;;;;;;5046712;28;20109;-64
2022/06/04 13:06:58;;;;;;;5.43;3.90;;;23.10;99.90;;;;;;5044820;28;20109;-64
2022/06/04 13:09:57;;;;;;;6.25;3.63;;;23.30;99.90;;;;;;5045653;28;20057;-64
2022/06/04 13:12:45;;;;;;;8.10;3.97;;;23.40;99.90;;;;;;5045478;28;20128;-64
2022/06/04 13:16:04;;;;;;;5.35;3.60;;;23.80;99.90;;;;;;5062853;28;20047;-64
2022/06/04 13:18:39;;;;;;;5.43;3.70;;;24.10;99.90;;;;;;5003733;28;20059;-64
2022/06/04 13:21:32;;;;;;;5.53;3.60;;;24.20;99.90;;;;;;5004688;28;20073;-64
2022/06/04 13:24:04;;;;;;;6.47;3.70;;;24.20;99.90;;;;;;4985835;28;20069;-64
2022/06/04 13:26:34;;;;;;;6.50;3.67;;;24.40;99.90;;;;;;5034999;28;20057;-64
2022/06/04 13:29:02;;;;;;;6.95;3.88;;;24.60;99.90;;;;;;5040867;28;20084;-64
2022/06/04 13:31:33;;;;;;;7.22;4.47;;;24.80;99.90;;;;;;5007908;28;20566;-64